createdAt,value
2023-03-17T00:00:33.048Z,8.30
2023-03-17T00:01:33.039Z,6.50
2023-03-17T00:02:33.059Z,5.90
2023-03-17T00:03:33.051Z,7.40
2023-03-17T00:04:32.991Z,5.80
2023-03-17T00:05:32.963Z,5.70
2023-03-17T00:06:32.957Z,5.00
2023-03-17T00:07:32.955Z,6.10
2023-03-17T00:08:32.940Z,6.90
2023-03-17T00:09:32.911Z,6.60
2023-03-17T00:10:33.224Z,7.50
2023-03-17T00:11:32.893Z,7.20
2023-03-17T00:12:32.891Z,6.30
2023-03-17T00:13:32.857Z,7.30
2023-03-17T00:14:32.864Z,7.30
2023-03-17T00:15:32.907Z,4.70
2023-03-17T00:16:32.848Z,4.40
2023-03-17T00:17:32.836Z,6.50
2023-03-17T00:18:32.813Z,6.10
2023-03-17T00:19:32.797Z,5.10
2023-03-17T00:20:32.784Z,8.10
2023-03-17T00:21:32.782Z,7.20
2023-03-17T00:22:32.774Z,6.20
2023-03-17T00:23:32.733Z,6.30
2023-03-17T00:24:32.724Z,6.10
2023-03-17T00:25:32.732Z,5.80
2023-03-17T00:26:32.698Z,4.20
2023-03-17T00:27:32.692Z,7.10
2023-03-17T00:28:32.701Z,5.30
2023-03-17T00:29:32.695Z,8.10
2023-03-17T00:30:32.988Z,6.40
2023-03-17T00:31:32.661Z,6.00
2023-03-17T00:32:32.665Z,7.50
2023-03-17T00:33:32.643Z,6.80
2023-03-17T00:34:32.610Z,5.40
2023-03-17T00:35:32.606Z,5.90
2023-03-17T00:36:32.589Z,7.40
2023-03-17T00:37:32.608Z,8.20
2023-03-17T00:38:32.553Z,6.10
2023-03-17T00:39:32.534Z,4.20
2023-03-17T00:40:32.726Z,7.20
2023-03-17T00:41:32.534Z,6.20
2023-03-17T00:42:32.505Z,5.10
2023-03-17T00:43:32.519Z,4.10
2023-03-17T00:44:32.494Z,3.80
2023-03-17T00:45:32.484Z,6.30
2023-03-17T00:46:32.479Z,5.00
2023-03-17T00:47:32.450Z,4.80
2023-03-17T00:48:32.436Z,3.80
2023-03-17T00:49:32.427Z,5.60
2023-03-17T00:50:32.780Z,9.00
2023-03-17T00:51:32.401Z,5.30
2023-03-17T00:52:32.374Z,5.40
2023-03-17T00:53:32.383Z,5.60
2023-03-17T00:54:32.360Z,7.60
2023-03-17T00:55:32.346Z,5.10
2023-03-17T00:56:32.319Z,7.30
2023-03-17T00:57:32.309Z,4.90
2023-03-17T00:58:32.306Z,7.40
2023-03-17T00:59:32.273Z,7.50
2023-03-17T01:00:32.634Z,5.50
2023-03-17T01:01:32.276Z,5.70
2023-03-17T01:02:32.261Z,6.20
2023-03-17T01:03:32.260Z,6.80
2023-03-17T01:04:32.222Z,6.20
2023-03-17T01:05:32.209Z,5.90
2023-03-17T01:06:32.177Z,5.60
2023-03-17T01:07:32.193Z,6.80
2023-03-17T01:08:32.164Z,5.50
2023-03-17T01:09:32.146Z,6.20
2023-03-17T01:10:32.493Z,5.00
2023-03-17T01:11:32.150Z,6.90
2023-03-17T01:12:32.135Z,5.50
2023-03-17T01:13:32.105Z,4.70
2023-03-17T01:14:32.088Z,5.20
2023-03-17T01:15:32.074Z,6.40
2023-03-17T01:16:32.142Z,5.90
2023-03-17T01:17:32.079Z,8.30
2023-03-17T01:18:32.085Z,5.80
2023-03-17T01:19:32.027Z,5.20
2023-03-17T01:20:32.463Z,5.40
2023-03-17T01:21:32.014Z,5.70
2023-03-17T01:22:31.985Z,6.80
2023-03-17T01:23:31.991Z,5.60
2023-03-17T01:24:31.964Z,5.80
2023-03-17T01:25:31.967Z,6.80
2023-03-17T01:26:31.940Z,4.40
2023-03-17T01:27:31.940Z,5.20
2023-03-17T01:28:31.939Z,7.70
2023-03-17T01:29:31.922Z,5.20
2023-03-17T01:30:32.388Z,6.60
2023-03-17T01:31:31.933Z,4.30
2023-03-17T01:32:31.895Z,6.80
2023-03-17T01:33:31.864Z,4.80
2023-03-17T01:34:31.835Z,4.00
2023-03-17T01:35:31.887Z,6.00
2023-03-17T01:36:31.804Z,5.30
2023-03-17T01:37:31.796Z,5.10
2023-03-17T01:38:31.796Z,4.40
2023-03-17T01:39:31.768Z,5.90
2023-03-17T01:40:32.356Z,3.80
2023-03-17T01:41:31.757Z,5.40
2023-03-17T01:42:31.759Z,4.40
2023-03-17T01:43:31.756Z,7.00
2023-03-17T01:44:31.727Z,4.80
2023-03-17T01:45:31.722Z,5.30
2023-03-17T01:46:31.711Z,4.60
2023-03-17T01:47:31.690Z,6.00
2023-03-17T01:48:31.707Z,5.40
2023-03-17T01:49:31.669Z,5.60
2023-03-17T01:50:31.873Z,5.90
2023-03-17T01:51:31.623Z,6.10
2023-03-17T01:52:31.609Z,6.40
2023-03-17T01:53:31.602Z,4.40
2023-03-17T01:54:31.582Z,5.30
2023-03-17T01:55:31.585Z,6.10
2023-03-17T01:56:31.552Z,4.80
2023-03-17T01:57:31.614Z,7.30
2023-03-17T01:58:31.556Z,7.00
2023-03-17T01:59:31.552Z,9.40
2023-03-17T02:00:32.073Z,5.60
2023-03-17T02:01:31.512Z,6.30
2023-03-17T02:02:31.536Z,5.60
2023-03-17T02:03:31.474Z,7.20
2023-03-17T02:04:31.617Z,5.10
2023-03-17T02:05:31.448Z,6.00
2023-03-17T02:06:31.439Z,5.00
2023-03-17T02:07:31.464Z,5.50
2023-03-17T02:08:31.428Z,8.20
2023-03-17T02:09:31.406Z,4.90
2023-03-17T02:10:31.663Z,6.40
2023-03-17T02:11:31.357Z,6.20
2023-03-17T02:12:31.360Z,6.20
2023-03-17T02:13:31.352Z,7.00
2023-03-17T02:14:31.328Z,5.50
2023-03-17T02:15:31.315Z,5.30
2023-03-17T02:16:31.348Z,8.80
2023-03-17T02:17:31.305Z,7.10
2023-03-17T02:18:31.266Z,7.00
2023-03-17T02:19:31.272Z,6.20
2023-03-17T02:20:31.833Z,7.00
2023-03-17T02:21:31.240Z,6.20
2023-03-17T02:22:31.218Z,6.90
2023-03-17T02:23:31.232Z,5.80
2023-03-17T02:24:31.239Z,4.90
2023-03-17T02:25:31.184Z,6.20
2023-03-17T02:26:31.207Z,6.40
2023-03-17T02:27:31.235Z,6.10
2023-03-17T02:28:31.151Z,5.90
2023-03-17T02:29:31.165Z,5.80
2023-03-17T02:30:31.445Z,7.90
2023-03-17T02:31:31.122Z,6.60
2023-03-17T02:32:31.190Z,6.40
2023-03-17T02:33:31.095Z,6.70
2023-03-17T02:34:31.108Z,6.60
2023-03-17T02:35:31.188Z,8.30
2023-03-17T02:36:31.074Z,6.40
2023-03-17T02:37:31.045Z,6.60
2023-03-17T02:38:31.046Z,6.00
2023-03-17T02:39:31.028Z,8.70
2023-03-17T02:40:31.406Z,6.90
2023-03-17T02:41:31.014Z,6.80
2023-03-17T02:42:30.991Z,7.60
2023-03-17T02:43:30.978Z,6.30
2023-03-17T02:44:31.021Z,6.90
2023-03-17T02:45:30.940Z,7.80
2023-03-17T02:46:31.024Z,6.80
2023-03-17T02:47:30.925Z,4.80
2023-03-17T02:48:30.898Z,6.50
2023-03-17T02:49:30.892Z,8.60
2023-03-17T02:50:31.263Z,5.70
2023-03-17T02:51:30.890Z,5.80
2023-03-17T02:52:30.851Z,6.60
2023-03-17T02:53:30.848Z,5.90
2023-03-17T02:54:30.852Z,4.90
2023-03-17T02:55:30.823Z,5.90
2023-03-17T02:56:30.803Z,6.30
2023-03-17T02:57:30.813Z,6.60
2023-03-17T02:58:30.815Z,8.40
2023-03-17T02:59:30.777Z,6.60
2023-03-17T03:00:31.106Z,6.40
2023-03-17T03:01:30.902Z,8.00
2023-03-17T03:02:30.777Z,4.30
2023-03-17T03:03:30.747Z,6.00
2023-03-17T03:04:30.746Z,4.90
2023-03-17T03:05:30.725Z,7.40
2023-03-17T03:06:30.670Z,6.00
2023-03-17T03:07:30.691Z,5.90
2023-03-17T03:08:30.643Z,7.20
2023-03-17T03:09:30.664Z,8.90
2023-03-17T03:10:30.924Z,5.00
2023-03-17T03:11:30.630Z,5.30
2023-03-17T03:12:30.623Z,6.10
2023-03-17T03:13:30.618Z,8.60
2023-03-17T03:14:30.599Z,4.80
2023-03-17T03:15:30.632Z,6.20
2023-03-17T03:16:30.546Z,5.10
2023-03-17T03:17:30.562Z,5.70
2023-03-17T03:18:30.551Z,8.40
2023-03-17T03:19:30.539Z,4.60
2023-03-17T03:20:30.890Z,8.00
2023-03-17T03:21:30.531Z,8.10
2023-03-17T03:22:30.476Z,5.50
2023-03-17T03:23:30.474Z,7.00
2023-03-17T03:24:30.453Z,4.90
2023-03-17T03:25:30.470Z,5.60
2023-03-17T03:26:30.440Z,4.50
2023-03-17T03:27:30.426Z,6.60
2023-03-17T03:28:30.424Z,6.50
2023-03-17T03:29:30.407Z,6.00
2023-03-17T03:30:30.572Z,7.90
2023-03-17T03:31:30.441Z,5.20
2023-03-17T03:32:30.414Z,6.40
2023-03-17T03:33:30.351Z,6.10
2023-03-17T03:34:30.337Z,5.40
2023-03-17T03:35:30.335Z,6.10
2023-03-17T03:36:30.317Z,7.40
2023-03-17T03:37:30.324Z,7.10
2023-03-17T03:38:30.273Z,6.60
2023-03-17T03:39:30.375Z,6.80
2023-03-17T03:40:30.455Z,5.20
2023-03-17T03:41:30.248Z,4.90
2023-03-17T03:42:30.237Z,6.40
2023-03-17T03:43:30.225Z,5.70
2023-03-17T03:44:30.212Z,5.20
2023-03-17T03:45:30.201Z,6.60
2023-03-17T03:46:30.396Z,8.50
2023-03-17T03:47:30.185Z,7.60
2023-03-17T03:48:30.170Z,5.60
2023-03-17T03:49:30.207Z,6.30
2023-03-17T03:50:30.411Z,6.60
2023-03-17T03:51:30.144Z,6.10
2023-03-17T03:52:30.102Z,6.80
2023-03-17T03:53:30.096Z,6.90
2023-03-17T03:54:30.138Z,5.30
2023-03-17T03:55:30.055Z,8.10
2023-03-17T03:56:30.045Z,5.50
2023-03-17T03:57:30.070Z,7.30
2023-03-17T03:58:30.050Z,6.10
2023-03-17T03:59:30.023Z,8.50
2023-03-17T04:00:30.253Z,6.80
2023-03-17T04:01:29.988Z,6.50
2023-03-17T04:02:29.984Z,7.10
2023-03-17T04:03:29.960Z,6.70
2023-03-17T04:04:30.038Z,4.90
2023-03-17T04:05:29.938Z,7.10
2023-03-17T04:06:29.927Z,5.50
2023-03-17T04:07:29.916Z,9.10
2023-03-17T04:08:29.916Z,7.80
2023-03-17T04:09:29.880Z,6.80
2023-03-17T04:10:30.235Z,6.50
2023-03-17T04:11:29.885Z,7.30
2023-03-17T04:12:29.852Z,6.20
2023-03-17T04:13:29.859Z,4.80
2023-03-17T04:14:29.815Z,6.60
2023-03-17T04:15:29.838Z,8.00
2023-03-17T04:16:29.826Z,9.20
2023-03-17T04:17:29.791Z,6.40
2023-03-17T04:18:29.786Z,5.50
2023-03-17T04:19:29.790Z,6.60
2023-03-17T04:20:30.092Z,6.20
2023-03-17T04:21:29.745Z,6.30
2023-03-17T04:22:29.744Z,4.70
2023-03-17T04:23:29.724Z,6.80
2023-03-17T04:24:29.695Z,5.90
2023-03-17T04:25:29.687Z,8.10
2023-03-17T04:26:29.685Z,4.60
2023-03-17T04:27:29.663Z,6.60
2023-03-17T04:28:29.657Z,5.50
2023-03-17T04:29:29.641Z,5.60
2023-03-17T04:30:30.014Z,5.70
2023-03-17T04:31:29.674Z,7.00
2023-03-17T04:32:29.643Z,7.00
2023-03-17T04:33:29.668Z,5.70
2023-03-17T04:34:29.602Z,5.10
2023-03-17T04:35:29.569Z,6.80
2023-03-17T04:36:29.543Z,4.30
2023-03-17T04:37:29.545Z,6.60
2023-03-17T04:38:29.526Z,5.60
2023-03-17T04:39:29.532Z,6.40
2023-03-17T04:40:29.811Z,5.20
2023-03-17T04:41:29.501Z,7.10
2023-03-17T04:42:29.495Z,5.10
2023-03-17T04:43:29.479Z,4.80
2023-03-17T04:44:29.448Z,6.40
2023-03-17T04:45:29.460Z,6.80
2023-03-17T04:46:29.447Z,6.30
2023-03-17T04:47:29.407Z,6.30
2023-03-17T04:48:29.403Z,6.00
2023-03-17T04:49:29.378Z,6.10
2023-03-17T04:50:29.744Z,7.90
2023-03-17T04:51:29.382Z,5.30
2023-03-17T04:52:29.385Z,6.70
2023-03-17T04:53:29.361Z,5.30
2023-03-17T04:54:29.325Z,7.70
2023-03-17T04:55:29.312Z,7.00
2023-03-17T04:56:31.611Z,7.50
2023-03-17T04:57:29.461Z,5.80
2023-03-17T04:58:31.052Z,5.00
2023-03-17T04:59:29.261Z,5.20
2023-03-17T05:00:29.614Z,5.70
2023-03-17T05:01:29.229Z,5.70
2023-03-17T05:02:29.292Z,6.80
2023-03-17T05:03:29.297Z,6.10
2023-03-17T05:04:31.966Z,5.00
2023-03-17T05:05:29.200Z,7.60
2023-03-17T05:06:29.183Z,5.90
2023-03-17T05:07:29.158Z,7.40
2023-03-17T05:08:29.192Z,6.30
2023-03-17T05:09:29.142Z,5.80
2023-03-17T05:10:29.478Z,6.90
2023-03-17T05:11:29.133Z,5.80
2023-03-17T05:12:29.092Z,6.60
2023-03-17T05:13:29.083Z,6.40
2023-03-17T05:14:29.095Z,6.80
2023-03-17T05:15:29.054Z,5.80
2023-03-17T05:16:29.140Z,6.70
2023-03-17T05:17:29.036Z,9.00
2023-03-17T05:18:29.029Z,5.00
2023-03-17T05:19:29.033Z,6.20
2023-03-17T05:20:29.379Z,5.60
2023-03-17T05:21:28.988Z,8.80
2023-03-17T05:22:28.969Z,9.30
2023-03-17T05:23:28.976Z,6.60
2023-03-17T05:24:28.948Z,5.30
2023-03-17T05:25:28.931Z,6.60
2023-03-17T05:26:28.922Z,6.50
2023-03-17T05:27:28.917Z,9.40
2023-03-17T05:28:28.916Z,5.30
2023-03-17T05:29:29.324Z,8.80
2023-03-17T05:30:36.883Z,10.90
2023-03-17T05:31:28.926Z,6.70
2023-03-17T05:32:28.957Z,7.30
2023-03-17T05:33:28.837Z,12.40
2023-03-17T05:34:28.895Z,6.30
2023-03-17T05:35:28.836Z,6.50
2023-03-17T05:36:28.819Z,7.20
2023-03-17T05:37:28.837Z,8.00
2023-03-17T05:38:31.714Z,8.00
2023-03-17T05:39:28.792Z,10.30
2023-03-17T05:40:29.157Z,6.30
2023-03-17T05:41:28.737Z,9.80
2023-03-17T05:42:28.726Z,7.90
2023-03-17T05:43:28.713Z,7.50
2023-03-17T05:44:28.762Z,9.60
2023-03-17T05:45:28.713Z,7.10
2023-03-17T05:46:36.648Z,10.20
2023-03-17T05:47:28.661Z,11.10
2023-03-17T05:48:28.815Z,7.30
2023-03-17T05:49:28.657Z,8.20
2023-03-17T05:50:29.243Z,8.90
2023-03-17T05:51:28.631Z,9.00
2023-03-17T05:52:28.598Z,8.40
2023-03-17T05:53:28.580Z,8.80
2023-03-17T05:54:28.590Z,9.10
2023-03-17T05:55:28.554Z,9.20
2023-03-17T05:56:28.596Z,6.80
2023-03-17T05:57:28.609Z,7.80
2023-03-17T05:58:28.530Z,9.90
2023-03-17T05:59:28.527Z,8.70
2023-03-17T06:00:28.797Z,11.40
2023-03-17T06:01:28.716Z,11.90
2023-03-17T06:02:28.529Z,10.20
2023-03-17T06:03:28.521Z,13.20
2023-03-17T06:04:30.232Z,10.60
2023-03-17T06:05:28.472Z,7.10
2023-03-17T06:06:28.427Z,10.10
2023-03-17T06:07:41.017Z,8.90
2023-03-17T06:08:28.413Z,8.90
2023-03-17T06:09:41.966Z,8.60
2023-03-17T06:10:28.429Z,12.80
2023-03-17T06:11:28.370Z,10.70
2023-03-17T06:12:28.492Z,12.50
2023-03-17T06:13:28.488Z,12.40
2023-03-17T06:14:28.357Z,14.90
2023-03-17T06:16:58.019Z,9.60
2023-03-17T06:17:57.507Z,9.80
2023-03-17T06:18:57.795Z,9.60
2023-03-17T06:19:57.379Z,10.70
2023-03-17T06:20:57.371Z,9.40
2023-03-17T06:21:57.339Z,10.90
2023-03-17T06:23:04.504Z,7.90
2023-03-17T06:23:57.517Z,9.10
2023-03-17T06:26:16.095Z,9.10
2023-03-17T06:27:17.024Z,6.80
2023-03-17T06:28:17.241Z,6.70
2023-03-17T06:29:16.976Z,6.40
2023-03-17T06:30:16.989Z,6.00
2023-03-17T06:31:16.966Z,7.00
2023-03-17T06:32:20.717Z,5.60
2023-03-17T06:33:16.937Z,7.60
2023-03-17T06:34:17.859Z,5.40
2023-03-17T06:35:16.992Z,8.20
2023-03-17T06:36:16.950Z,7.40
2023-03-17T06:37:16.861Z,7.70
2023-03-17T06:38:16.863Z,9.90
2023-03-17T06:39:16.871Z,8.20
2023-03-17T06:40:16.846Z,7.00
2023-03-17T06:44:15.426Z,9.80
2023-03-17T06:45:16.317Z,9.30
2023-03-17T06:46:17.065Z,6.70
2023-03-17T06:47:16.240Z,7.40
2023-03-17T06:48:16.237Z,7.10
2023-03-17T06:49:16.257Z,11.80
2023-03-17T06:50:16.205Z,9.80
2023-03-17T06:51:16.314Z,10.50
2023-03-17T06:52:18.433Z,5.30
2023-03-17T06:53:16.180Z,10.80
2023-03-17T06:54:17.548Z,5.00
2023-03-17T06:55:16.160Z,7.00
2023-03-17T06:56:29.222Z,6.60
2023-03-17T06:57:16.129Z,9.50
2023-03-17T06:58:16.413Z,8.50
2023-03-17T06:59:16.277Z,7.00
2023-03-17T07:00:16.373Z,10.90
2023-03-17T07:01:16.180Z,8.00
2023-03-17T07:02:16.087Z,8.30
2023-03-17T07:03:16.119Z,9.10
2023-03-17T07:04:16.096Z,8.80
2023-03-17T07:05:16.035Z,8.10
2023-03-17T07:06:16.055Z,13.50
2023-03-17T07:07:16.005Z,11.20
2023-03-17T07:08:16.160Z,8.00
2023-03-17T07:09:16.039Z,9.20
2023-03-17T07:10:16.064Z,8.10
2023-03-17T07:11:16.194Z,10.40
2023-03-17T07:12:15.952Z,11.80
2023-03-17T07:13:15.922Z,13.00
2023-03-17T07:14:15.973Z,11.50
2023-03-17T07:15:16.356Z,14.30
2023-03-17T07:16:18.460Z,22.10
2023-03-17T07:17:16.212Z,14.30
2023-03-17T07:18:15.892Z,17.20
2023-03-17T07:19:15.898Z,11.40
2023-03-17T07:20:15.833Z,12.30
2023-03-17T07:21:15.846Z,12.60
2023-03-17T07:22:15.809Z,10.40
2023-03-17T07:23:16.137Z,8.40
2023-03-17T07:24:15.823Z,7.70
2023-03-17T07:25:15.852Z,8.40
2023-03-17T07:26:15.856Z,6.80
2023-03-17T07:27:17.571Z,8.70
2023-03-17T07:28:18.503Z,6.90
2023-03-17T07:29:15.899Z,9.30
2023-03-17T07:30:15.969Z,7.20
2023-03-17T07:31:15.770Z,10.30
2023-03-17T07:32:16.368Z,6.60
2023-03-17T07:33:15.005Z,11.80
2023-03-17T07:34:15.697Z,10.80
2023-03-17T07:35:16.183Z,13.30
2023-03-17T07:36:18.858Z,8.70
2023-03-17T07:37:15.672Z,8.40
2023-03-17T07:38:15.664Z,9.40
2023-03-17T07:39:15.651Z,9.20
2023-03-17T07:40:15.689Z,13.00
2023-03-17T07:41:15.665Z,5.30
2023-03-17T07:42:15.572Z,13.20
2023-03-17T07:43:15.572Z,7.30
2023-03-17T07:44:23.705Z,6.60
2023-03-17T07:45:15.909Z,8.60
2023-03-17T07:46:16.905Z,7.30
2023-03-17T07:47:15.797Z,9.50
2023-03-17T07:48:15.521Z,7.00
2023-03-17T07:49:15.468Z,7.80
2023-03-17T07:50:15.442Z,11.30
2023-03-17T07:51:16.703Z,8.70
2023-03-17T07:52:15.509Z,6.90
2023-03-17T07:53:15.438Z,5.00
2023-03-17T07:54:15.396Z,7.40
2023-03-17T07:55:15.384Z,5.40
2023-03-17T07:56:15.366Z,7.50
2023-03-17T07:57:15.367Z,6.30
2023-03-17T07:58:16.031Z,8.20
2023-03-17T07:59:15.330Z,6.60
2023-03-17T08:00:15.313Z,9.00
2023-03-17T08:01:15.338Z,9.90
2023-03-17T08:02:15.380Z,5.70
2023-03-17T08:03:15.397Z,6.40
2023-03-17T08:04:15.284Z,6.20
2023-03-17T08:05:16.609Z,7.40
2023-03-17T08:06:15.287Z,13.20
2023-03-17T08:07:15.236Z,7.50
2023-03-17T08:08:15.208Z,7.60
2023-03-17T08:09:15.238Z,10.40
2023-03-17T08:10:15.207Z,13.20
2023-03-17T08:11:15.712Z,12.10
2023-03-17T08:12:15.221Z,11.00
2023-03-17T08:13:15.138Z,9.30
2023-03-17T08:14:15.188Z,10.10
2023-03-17T08:15:15.140Z,8.40
2023-03-17T08:16:15.188Z,10.90
2023-03-17T08:17:15.093Z,7.60
2023-03-17T08:18:15.076Z,5.30
2023-03-17T08:19:15.132Z,6.00
2023-03-17T08:20:15.066Z,5.00
2023-03-17T08:21:15.987Z,7.70
2023-03-17T08:22:15.062Z,7.80
2023-03-17T08:23:15.011Z,5.40
2023-03-17T08:24:15.055Z,5.90
2023-03-17T08:25:15.032Z,6.70
2023-03-17T08:26:15.027Z,6.80
2023-03-17T08:27:15.009Z,4.20
2023-03-17T08:28:14.984Z,6.90
2023-03-17T08:29:15.563Z,5.90
2023-03-17T08:30:14.947Z,6.20
2023-03-17T08:31:15.058Z,6.30
2023-03-17T08:32:14.947Z,7.50
2023-03-17T08:33:14.938Z,5.60
2023-03-17T08:34:14.883Z,9.30
2023-03-17T08:35:14.880Z,6.90
2023-03-17T08:36:14.864Z,7.60
2023-03-17T08:37:14.836Z,3.90
2023-03-17T08:38:14.884Z,4.10
2023-03-17T08:39:14.808Z,6.30
2023-03-17T08:40:14.794Z,5.30
2023-03-17T08:41:14.772Z,5.40
2023-03-17T08:42:14.768Z,7.70
2023-03-17T08:43:14.774Z,5.20
2023-03-17T08:44:14.738Z,4.80
2023-03-17T08:45:14.736Z,8.00
2023-03-17T08:46:14.747Z,6.00
2023-03-17T08:47:14.708Z,6.50
2023-03-17T08:48:14.700Z,10.50
2023-03-17T08:49:14.675Z,5.80
2023-03-17T08:50:14.674Z,10.20
2023-03-17T08:51:17.701Z,9.40
2023-03-17T08:52:14.635Z,6.40
2023-03-17T08:53:14.657Z,7.00
2023-03-17T08:54:14.610Z,5.20
2023-03-17T08:55:14.642Z,6.10
2023-03-17T08:56:14.589Z,6.50
2023-03-17T08:57:15.733Z,7.20
2023-03-17T08:58:14.555Z,11.40
2023-03-17T08:59:16.861Z,6.40
2023-03-17T09:00:14.538Z,5.30
2023-03-17T09:01:14.602Z,8.10
2023-03-17T09:02:14.614Z,7.80
2023-03-17T09:03:14.498Z,8.20
2023-03-17T09:04:14.521Z,5.80
2023-03-17T09:05:14.508Z,7.50
2023-03-17T09:06:14.460Z,5.90
2023-03-17T09:07:14.443Z,5.70
2023-03-17T09:08:14.551Z,6.00
2023-03-17T09:09:14.448Z,8.30
2023-03-17T09:10:14.469Z,8.60
2023-03-17T09:11:14.413Z,8.80
2023-03-17T09:12:14.396Z,3.80
2023-03-17T09:13:14.392Z,8.90
2023-03-17T09:14:14.360Z,3.80
2023-03-17T09:15:14.342Z,5.40
2023-03-17T09:16:14.393Z,4.30
2023-03-17T09:17:14.319Z,5.70
2023-03-17T09:18:14.378Z,4.20
2023-03-17T09:19:14.297Z,7.20
2023-03-17T09:20:14.281Z,5.60
2023-03-17T09:21:14.287Z,7.50
2023-03-17T09:22:14.260Z,6.10
2023-03-17T09:23:14.254Z,6.50
2023-03-17T09:24:14.233Z,6.40
2023-03-17T09:25:14.244Z,7.90
2023-03-17T09:26:14.225Z,7.80
2023-03-17T09:27:14.192Z,6.30
2023-03-17T09:28:14.183Z,6.50
2023-03-17T09:29:14.164Z,3.90
2023-03-17T09:30:14.169Z,9.80
2023-03-17T09:31:14.253Z,6.40
2023-03-17T09:32:14.121Z,7.50
2023-03-17T09:33:14.135Z,4.30
2023-03-17T09:34:14.120Z,6.90
2023-03-17T09:35:14.082Z,8.20
2023-03-17T09:36:14.110Z,6.90
2023-03-17T09:37:14.056Z,5.80
2023-03-17T09:38:14.054Z,5.10
2023-03-17T09:39:14.031Z,4.40
2023-03-17T09:40:14.039Z,8.20
2023-03-17T09:41:14.016Z,6.20
2023-03-17T09:42:13.999Z,4.00
2023-03-17T09:43:13.996Z,5.80
2023-03-17T09:44:13.987Z,6.90
2023-03-17T09:45:13.958Z,4.40
2023-03-17T09:46:14.014Z,6.80
2023-03-17T09:47:13.927Z,8.90
2023-03-17T09:48:13.942Z,4.90
2023-03-17T09:49:14.002Z,6.10
2023-03-17T09:50:13.907Z,4.30
2023-03-17T09:51:13.901Z,4.90
2023-03-17T09:52:13.902Z,5.20
2023-03-17T09:53:13.870Z,4.30
2023-03-17T09:54:13.846Z,7.20
2023-03-17T09:55:13.828Z,7.60
2023-03-17T09:56:13.837Z,9.60
2023-03-17T09:57:13.837Z,4.50
2023-03-17T09:58:13.810Z,8.20
2023-03-17T09:59:14.443Z,6.60
2023-03-17T10:00:13.795Z,5.60
2023-03-17T10:01:13.785Z,3.90
2023-03-17T10:02:13.784Z,5.90
2023-03-17T10:03:13.741Z,5.40
2023-03-17T10:04:13.739Z,6.80
2023-03-17T10:05:13.747Z,7.80
2023-03-17T10:06:13.730Z,5.20
2023-03-17T10:07:13.693Z,5.80
2023-03-17T10:08:29.656Z,5.90
2023-03-17T10:09:13.660Z,3.70
2023-03-17T10:10:13.658Z,6.40
2023-03-17T10:11:13.700Z,6.60
2023-03-17T10:12:13.622Z,5.90
2023-03-17T10:13:13.652Z,4.50
2023-03-17T10:14:13.597Z,7.70
2023-03-17T10:15:13.592Z,6.30
2023-03-17T10:16:13.665Z,6.40
2023-03-17T10:17:13.583Z,6.20
2023-03-17T10:18:13.545Z,6.90
2023-03-17T10:19:13.547Z,7.10
2023-03-17T10:20:13.525Z,7.20
2023-03-17T10:21:13.496Z,4.20
2023-03-17T10:22:13.503Z,4.70
2023-03-17T10:23:13.473Z,5.80
2023-03-17T10:24:13.500Z,6.10
2023-03-17T10:25:13.467Z,5.50
2023-03-17T10:26:13.445Z,6.00
2023-03-17T10:27:13.441Z,4.10
2023-03-17T10:28:13.411Z,4.40
2023-03-17T10:29:13.396Z,3.30
2023-03-17T10:30:13.412Z,4.00
2023-03-17T10:31:13.445Z,5.40
2023-03-17T10:32:13.392Z,4.20
2023-03-17T10:33:13.357Z,4.10
2023-03-17T10:34:13.348Z,7.00
2023-03-17T10:35:13.355Z,3.60
2023-03-17T10:36:13.373Z,3.60
2023-03-17T10:37:13.315Z,6.80
2023-03-17T10:38:14.665Z,3.50
2023-03-17T10:39:13.267Z,3.30
2023-03-17T10:40:13.294Z,3.30
2023-03-17T10:41:13.258Z,2.30
2023-03-17T10:42:13.238Z,3.40
2023-03-17T10:43:13.220Z,2.70
2023-03-17T10:44:13.209Z,5.10
2023-03-17T10:45:13.212Z,2.30
2023-03-17T10:46:13.184Z,6.10
2023-03-17T10:47:13.237Z,4.10
2023-03-17T10:48:13.158Z,4.90
2023-03-17T10:49:13.152Z,5.50
2023-03-17T10:50:13.142Z,5.90
2023-03-17T10:51:13.132Z,3.80
2023-03-17T10:52:13.112Z,5.20
2023-03-17T10:53:13.096Z,3.90
2023-03-17T10:54:13.081Z,4.20
2023-03-17T10:55:13.073Z,2.10
2023-03-17T10:56:13.082Z,4.70
2023-03-17T10:57:13.056Z,4.20
2023-03-17T10:58:13.040Z,4.70
2023-03-17T10:59:13.130Z,3.60
2023-03-17T11:00:13.030Z,4.80
2023-03-17T11:01:13.088Z,3.40
2023-03-17T11:02:13.030Z,10.30
2023-03-17T11:03:12.974Z,13.10
2023-03-17T11:04:13.026Z,11.20
2023-03-17T11:05:12.965Z,5.60
2023-03-17T11:06:12.978Z,6.30
2023-03-17T11:07:12.950Z,7.20
2023-03-17T11:08:12.950Z,2.70
2023-03-17T11:09:12.929Z,6.10
2023-03-17T11:10:12.894Z,2.40
2023-03-17T11:11:12.882Z,4.60
2023-03-17T11:12:12.898Z,2.30
2023-03-17T11:13:12.884Z,5.20
2023-03-17T11:14:12.856Z,3.50
2023-03-17T11:15:12.857Z,4.00
2023-03-17T11:16:12.861Z,3.30
2023-03-17T11:17:12.798Z,4.50
2023-03-17T11:18:12.792Z,1.90
2023-03-17T11:19:12.790Z,2.90
2023-03-17T11:20:12.831Z,6.50
2023-03-17T11:21:12.755Z,3.80
2023-03-17T11:22:12.752Z,2.30
2023-03-17T11:23:12.734Z,2.70
2023-03-17T11:24:12.718Z,3.60
2023-03-17T11:25:12.704Z,4.40
2023-03-17T11:26:12.696Z,3.00
2023-03-17T11:27:12.681Z,2.80
2023-03-17T11:28:12.682Z,6.20
2023-03-17T11:29:12.653Z,1.50
2023-03-17T11:30:14.266Z,4.30
2023-03-17T11:31:12.718Z,2.20
2023-03-17T11:32:12.624Z,1.80
2023-03-17T11:33:12.702Z,2.10
2023-03-17T11:34:12.600Z,4.20
2023-03-17T11:35:12.593Z,1.20
2023-03-17T11:36:12.578Z,3.40
2023-03-17T11:37:12.546Z,2.30
2023-03-17T11:38:12.596Z,2.50
2023-03-17T11:39:12.612Z,4.40
2023-03-17T11:40:12.576Z,2.60
2023-03-17T11:41:12.542Z,5.20
2023-03-17T11:42:12.503Z,4.90
2023-03-17T11:43:12.489Z,4.40
2023-03-17T11:44:12.509Z,4.10
2023-03-17T11:45:12.462Z,5.70
2023-03-17T11:46:12.484Z,2.90
2023-03-17T11:47:12.428Z,3.30
2023-03-17T11:48:12.439Z,5.40
2023-03-17T11:49:12.422Z,2.10
2023-03-17T11:50:12.393Z,4.00
2023-03-17T11:51:12.384Z,1.40
2023-03-17T11:52:12.387Z,5.60
2023-03-17T11:53:12.359Z,4.10
2023-03-17T11:54:12.364Z,4.10
2023-03-17T11:55:12.338Z,3.40
2023-03-17T11:56:12.327Z,3.50
2023-03-17T11:57:12.312Z,4.60
2023-03-17T11:58:12.309Z,2.30
2023-03-17T11:59:12.292Z,4.00
2023-03-17T12:00:12.266Z,2.90
2023-03-17T12:01:12.290Z,2.10
2023-03-17T12:02:12.258Z,3.00
2023-03-17T12:03:12.313Z,5.50
2023-03-17T12:04:12.279Z,2.20
2023-03-17T12:05:12.223Z,2.40
2023-03-17T12:06:12.215Z,4.90
2023-03-17T12:07:12.189Z,3.70
2023-03-17T12:08:12.170Z,5.70
2023-03-17T12:09:12.181Z,3.80
2023-03-17T12:10:12.159Z,4.20
2023-03-17T12:11:12.133Z,4.40
2023-03-17T12:12:13.372Z,4.00
2023-03-17T12:13:12.115Z,1.80
2023-03-17T12:14:12.136Z,5.60
2023-03-17T12:15:12.104Z,2.60
2023-03-17T12:16:12.176Z,4.40
2023-03-17T12:17:12.076Z,3.70
2023-03-17T12:18:12.052Z,5.30
2023-03-17T12:19:12.054Z,2.80
2023-03-17T12:20:12.038Z,3.90
2023-03-17T12:21:12.034Z,3.60
2023-03-17T12:22:11.999Z,3.20
2023-03-17T12:23:12.012Z,3.20
2023-03-17T12:24:12.006Z,2.90
2023-03-17T12:25:12.253Z,2.90
2023-03-17T12:26:11.966Z,1.90
2023-03-17T12:27:11.959Z,3.00
2023-03-17T12:28:11.951Z,6.30
2023-03-17T12:29:11.927Z,3.10
2023-03-17T12:30:11.902Z,4.00
2023-03-17T12:31:11.898Z,5.60
2023-03-17T12:32:11.879Z,3.20
2023-03-17T12:33:11.979Z,4.70
2023-03-17T12:34:11.867Z,1.60
2023-03-17T12:35:11.839Z,3.20
2023-03-17T12:36:11.893Z,3.10
2023-03-17T12:37:11.810Z,5.00
2023-03-17T12:38:11.809Z,4.60
2023-03-17T12:39:11.803Z,4.60
2023-03-17T12:40:11.783Z,3.10
2023-03-17T12:41:11.759Z,5.50
2023-03-17T12:42:11.786Z,3.80
2023-03-17T12:43:11.736Z,3.00
2023-03-17T12:44:11.735Z,2.80
2023-03-17T12:45:11.716Z,3.20
2023-03-17T12:46:11.712Z,4.80
2023-03-17T12:47:11.798Z,1.60
2023-03-17T12:48:11.676Z,4.40
2023-03-17T12:49:11.650Z,3.10
2023-03-17T12:50:11.651Z,4.50
2023-03-17T12:51:11.638Z,1.80
2023-03-17T12:52:11.610Z,1.80
2023-03-17T12:53:11.597Z,3.40
2023-03-17T12:54:11.686Z,3.10
2023-03-17T12:55:11.573Z,2.50
2023-03-17T12:56:11.560Z,4.70
2023-03-17T12:57:11.542Z,2.40
2023-03-17T12:58:11.549Z,4.00
2023-03-17T12:59:11.523Z,2.00
2023-03-17T13:00:11.547Z,3.80
2023-03-17T13:01:11.525Z,7.90
2023-03-17T13:02:11.476Z,3.60
2023-03-17T13:03:11.510Z,4.20
2023-03-17T13:04:11.454Z,2.90
2023-03-17T13:05:11.452Z,3.20
2023-03-17T13:06:11.427Z,2.00
2023-03-17T13:07:11.416Z,3.70
2023-03-17T13:08:11.397Z,3.30
2023-03-17T13:09:11.394Z,4.60
2023-03-17T13:10:11.375Z,2.20
2023-03-17T13:11:11.428Z,5.00
2023-03-17T13:12:11.348Z,3.00
2023-03-17T13:13:11.348Z,5.40
2023-03-17T13:14:11.360Z,2.40
2023-03-17T13:15:11.317Z,2.30
2023-03-17T13:16:11.351Z,2.30
2023-03-17T13:17:11.286Z,5.60
2023-03-17T13:18:11.288Z,2.70
2023-03-17T13:19:11.274Z,4.20
2023-03-17T13:20:11.372Z,3.40
2023-03-17T13:21:11.239Z,4.10
2023-03-17T13:22:11.214Z,4.40